createdAt,value
2018-06-20T00:00:33.352Z,5.67
2018-06-20T00:03:01.854Z,5.80
2018-06-20T00:05:30.336Z,5.73
2018-06-20T00:07:58.712Z,5.10
2018-06-20T00:10:27.433Z,5.03
2018-06-20T00:12:55.754Z,5.77
2018-06-20T00:15:24.361Z,4.87
2018-06-20T00:17:52.440Z,5.13
2018-06-20T00:20:21.027Z,4.60
2018-06-20T00:22:49.433Z,5.87
2018-06-20T00:25:17.981Z,4.90
2018-06-20T00:27:47.393Z,5.23
2018-06-20T00:30:15.873Z,4.80
2018-06-20T00:32:44.254Z,5.13
2018-06-20T00:35:12.722Z,5.27
2018-06-20T00:37:41.131Z,5.90
2018-06-20T00:40:09.592Z,5.30
2018-06-20T00:42:38.902Z,4.87
2018-06-20T00:45:07.538Z,5.30
2018-06-20T00:47:35.947Z,5.40
2018-06-20T00:50:04.541Z,5.77
2018-06-20T00:52:33.156Z,5.60
2018-06-20T00:55:01.501Z,5.47
2018-06-20T00:57:30.111Z,5.60
2018-06-20T00:59:58.490Z,5.70
2018-06-20T01:02:26.806Z,5.23
2018-06-20T01:04:55.331Z,6.20
2018-06-20T01:07:24.617Z,4.97
2018-06-20T01:09:53.110Z,4.87
2018-06-20T01:12:21.485Z,4.83
2018-06-20T01:14:50.076Z,5.27
2018-06-20T01:17:18.542Z,4.67
2018-06-20T01:19:47.146Z,4.63
2018-06-20T01:22:15.617Z,4.53
2018-06-20T01:24:44.097Z,4.50
2018-06-20T01:27:12.684Z,4.60
2018-06-20T01:29:41.061Z,4.77
2018-06-20T01:32:09.547Z,4.80
2018-06-20T01:34:38.035Z,4.53
2018-06-20T01:37:06.492Z,5.07
2018-06-20T01:39:34.782Z,4.23
2018-06-20T01:42:03.298Z,4.80
2018-06-20T01:44:31.875Z,4.70
2018-06-20T01:47:00.459Z,4.50
2018-06-20T01:49:28.801Z,4.63
2018-06-20T01:51:57.389Z,4.40
2018-06-20T01:54:25.781Z,5.23
2018-06-20T01:56:54.353Z,4.33
2018-06-20T01:59:22.742Z,4.80
2018-06-20T02:01:51.121Z,4.87
2018-06-20T02:04:19.535Z,4.73
2018-06-20T02:06:47.850Z,4.63
2018-06-20T02:09:16.246Z,4.70
2018-06-20T02:11:44.432Z,4.60
2018-06-20T02:14:12.914Z,4.70
2018-06-20T02:16:41.495Z,4.40
2018-06-20T02:19:09.872Z,4.67
2018-06-20T02:21:38.453Z,4.63
2018-06-20T02:24:06.738Z,5.10
2018-06-20T02:26:35.237Z,4.60
2018-06-20T02:29:03.699Z,4.67
2018-06-20T02:31:32.281Z,4.63
2018-06-20T02:34:00.791Z,4.47
2018-06-20T02:36:32.552Z,4.40
2018-06-20T02:39:02.208Z,4.83
2018-06-20T02:41:30.817Z,4.83
2018-06-20T02:43:59.288Z,4.87
2018-06-20T02:46:27.682Z,4.80
2018-06-20T02:48:56.443Z,5.10
2018-06-20T02:51:24.950Z,5.67
2018-06-20T02:53:53.420Z,5.07
2018-06-20T02:56:21.909Z,4.60
2018-06-20T02:58:50.270Z,5.03
2018-06-20T03:01:18.669Z,4.73
2018-06-20T03:03:47.072Z,4.93
2018-06-20T03:06:15.532Z,4.97
2018-06-20T03:08:46.659Z,5.03
2018-06-20T03:11:15.156Z,4.97
2018-06-20T03:13:44.355Z,5.40
2018-06-20T03:16:12.844Z,5.50
2018-06-20T03:18:41.217Z,5.87
2018-06-20T03:21:09.693Z,4.93
2018-06-20T03:23:38.057Z,5.20
2018-06-20T03:26:06.446Z,5.23
2018-06-20T03:28:34.831Z,6.10
2018-06-20T03:31:03.304Z,6.83
2018-06-20T03:33:31.826Z,6.70
2018-06-20T03:36:00.177Z,6.33
2018-06-20T03:38:28.549Z,9.47
2018-06-20T03:40:56.925Z,5.57
2018-06-20T03:43:25.270Z,6.03
2018-06-20T03:45:53.573Z,5.90
2018-06-20T03:48:22.073Z,5.37
2018-06-20T03:50:50.442Z,5.30
2018-06-20T03:53:18.953Z,5.13
2018-06-20T03:55:47.418Z,5.37
2018-06-20T03:58:15.994Z,5.40
2018-06-20T04:00:44.273Z,5.60
2018-06-20T04:03:12.655Z,5.97
2018-06-20T04:05:41.177Z,5.83
2018-06-20T04:08:09.641Z,6.00
2018-06-20T04:10:38.004Z,5.97
2018-06-20T04:13:06.482Z,5.80
2018-06-20T04:15:34.835Z,5.70
2018-06-20T04:18:03.341Z,5.73
2018-06-20T04:20:31.805Z,5.60
2018-06-20T04:23:00.200Z,5.40
2018-06-20T04:25:28.598Z,5.87
2018-06-20T04:27:57.112Z,5.97
2018-06-20T04:30:25.441Z,5.40
2018-06-20T04:32:53.713Z,6.50
2018-06-20T04:35:22.755Z,6.47
2018-06-20T04:37:51.277Z,6.50
2018-06-20T04:40:19.669Z,5.83
2018-06-20T04:42:48.253Z,5.70
2018-06-20T04:45:16.873Z,5.87
2018-06-20T04:47:45.322Z,5.90
2018-06-20T04:50:13.801Z,5.57
2018-06-20T04:52:42.501Z,5.47
2018-06-20T04:55:10.842Z,5.27
2018-06-20T04:57:39.350Z,4.97
2018-06-20T05:00:08.910Z,5.27
2018-06-20T05:02:37.322Z,5.80
2018-06-20T05:05:05.948Z,5.60
2018-06-20T05:07:35.389Z,6.27
2018-06-20T05:10:03.701Z,5.13
2018-06-20T05:12:32.305Z,5.67
2018-06-20T05:15:01.282Z,5.23
2018-06-20T05:17:29.848Z,5.20
2018-06-20T05:19:58.141Z,5.40
2018-06-20T05:22:26.629Z,5.67
2018-06-20T05:24:55.034Z,5.30
2018-06-20T05:27:23.692Z,5.13
2018-06-20T05:29:52.175Z,5.30
2018-06-20T05:32:20.654Z,5.33
2018-06-20T05:34:49.126Z,4.70
2018-06-20T05:37:17.719Z,5.43
2018-06-20T05:39:46.302Z,5.37
2018-06-20T05:42:15.015Z,5.67
2018-06-20T05:44:43.665Z,5.40
2018-06-20T05:47:12.162Z,5.70
2018-06-20T05:49:40.630Z,5.30
2018-06-20T05:52:09.121Z,5.50
2018-06-20T05:54:37.481Z,5.70
2018-06-20T05:57:05.873Z,4.70
2018-06-20T05:59:34.284Z,4.80
2018-06-20T06:02:02.840Z,5.60
2018-06-20T06:04:31.635Z,5.40
2018-06-20T06:07:00.007Z,4.80
2018-06-20T06:09:28.572Z,5.40
2018-06-20T06:11:57.090Z,6.30
2018-06-20T06:14:25.448Z,5.20
2018-06-20T06:16:53.859Z,4.90
2018-06-20T06:19:22.193Z,5.20
2018-06-20T06:21:50.581Z,4.70
2018-06-20T06:24:19.095Z,5.13
2018-06-20T06:26:47.550Z,5.10
2018-06-20T06:29:16.343Z,4.63
2018-06-20T06:31:44.716Z,4.73
2018-06-20T06:34:13.286Z,4.27
2018-06-20T06:36:42.247Z,4.70
2018-06-20T06:39:11.662Z,4.50
2018-06-20T06:41:40.189Z,4.97
2018-06-20T06:44:08.693Z,4.83
2018-06-20T06:46:37.136Z,4.87
2018-06-20T06:49:06.068Z,4.53
2018-06-20T06:51:34.708Z,4.40
2018-06-20T06:54:03.096Z,4.63
2018-06-20T06:56:31.471Z,4.40
2018-06-20T06:58:59.970Z,4.93
2018-06-20T07:01:28.338Z,4.30
2018-06-20T07:03:56.823Z,5.10
2018-06-20T07:06:25.195Z,4.50
2018-06-20T07:08:53.788Z,5.50
2018-06-20T07:11:22.269Z,4.40
2018-06-20T07:13:50.538Z,4.03
2018-06-20T07:16:19.023Z,4.67
2018-06-20T07:18:47.430Z,4.47
2018-06-20T07:21:15.869Z,4.47
2018-06-20T07:23:44.280Z,4.73
2018-06-20T07:26:12.861Z,4.27
2018-06-20T07:28:41.386Z,3.90
2018-06-20T07:31:09.913Z,4.47
2018-06-20T07:33:38.507Z,4.40
2018-06-20T07:36:07.974Z,4.17
2018-06-20T07:38:36.427Z,4.50
2018-06-20T07:41:04.857Z,4.50
2018-06-20T07:43:33.358Z,4.23
2018-06-20T07:46:02.782Z,4.43
2018-06-20T07:48:31.124Z,4.40
2018-06-20T07:51:00.033Z,5.00
2018-06-20T07:53:28.397Z,4.20
2018-06-20T07:55:56.874Z,4.83
2018-06-20T07:58:30.624Z,4.27
2018-06-20T08:01:04.640Z,5.30
2018-06-20T08:03:38.477Z,4.27
2018-06-20T08:06:12.392Z,4.73
2018-06-20T08:08:46.176Z,4.50
2018-06-20T08:11:20.829Z,5.37
2018-06-20T08:13:54.878Z,4.70
2018-06-20T08:16:28.905Z,3.90
2018-06-20T08:19:02.763Z,3.93
2018-06-20T08:21:31.267Z,3.70
2018-06-20T08:23:59.620Z,4.37
2018-06-20T08:26:28.328Z,3.93
2018-06-20T08:28:56.908Z,3.80
2018-06-20T08:31:25.168Z,4.40
2018-06-20T08:33:53.877Z,4.03
2018-06-20T08:36:22.380Z,3.80
2018-06-20T08:38:50.829Z,3.77
2018-06-20T08:41:19.422Z,3.27
2018-06-20T08:43:47.875Z,3.83
2018-06-20T08:46:16.517Z,3.50
2018-06-20T08:48:44.949Z,3.37
2018-06-20T08:51:13.241Z,3.63
2018-06-20T08:53:41.830Z,3.60
2018-06-20T08:56:10.101Z,3.40
2018-06-20T08:58:38.688Z,3.10
2018-06-20T09:01:07.217Z,3.77
2018-06-20T09:03:35.645Z,3.17
2018-06-20T09:06:09.391Z,3.47
2018-06-20T09:08:43.066Z,3.43
2018-06-20T09:11:16.928Z,3.33
2018-06-20T09:13:50.768Z,3.60
2018-06-20T09:17:23.594Z,3.37
2018-06-20T09:19:53.126Z,3.37
2018-06-20T09:22:22.380Z,3.20
2018-06-20T09:24:50.653Z,3.47
2018-06-20T09:27:19.286Z,3.00
2018-06-20T09:29:47.814Z,3.30
2018-06-20T09:32:16.666Z,3.10
2018-06-20T09:34:45.646Z,3.17
2018-06-20T09:37:13.980Z,3.00
2018-06-20T09:39:42.538Z,3.57
2018-06-20T09:42:10.957Z,3.40
2018-06-20T09:44:39.491Z,3.13
2018-06-20T09:47:07.909Z,3.20
2018-06-20T09:49:36.075Z,3.03
2018-06-20T09:52:04.568Z,3.20
2018-06-20T09:54:34.055Z,2.97
2018-06-20T09:57:02.532Z,3.07
2018-06-20T09:59:36.245Z,2.80
2018-06-20T10:02:10.068Z,2.90
2018-06-20T10:04:43.911Z,2.90
2018-06-20T10:07:17.795Z,3.13
2018-06-20T10:09:51.985Z,3.20
2018-06-20T10:13:24.891Z,3.10
2018-06-20T10:15:52.953Z,3.37
2018-06-20T10:18:21.590Z,3.37
2018-06-20T10:20:49.546Z,3.30
2018-06-20T10:23:17.624Z,3.10
2018-06-20T10:25:45.857Z,3.40
2018-06-20T10:28:14.416Z,3.33
2018-06-20T10:30:42.720Z,3.07
2018-06-20T10:33:11.073Z,2.90
2018-06-20T10:35:40.076Z,2.60
2018-06-20T10:38:08.557Z,2.80
2018-06-20T10:40:37.079Z,3.20
2018-06-20T10:43:05.528Z,2.87
2018-06-20T10:45:39.384Z,3.00
2018-06-20T10:48:16.160Z,2.97
2018-06-20T10:50:44.925Z,3.27
2018-06-20T10:53:13.381Z,3.20
2018-06-20T10:55:42.169Z,3.40
2018-06-20T10:58:16.102Z,4.00
2018-06-20T11:00:50.166Z,3.20
2018-06-20T11:03:24.086Z,3.90
2018-06-20T11:05:57.963Z,3.50
2018-06-20T11:08:31.769Z,3.73
2018-06-20T11:11:05.525Z,6.17
2018-06-20T11:13:34.122Z,5.77
2018-06-20T11:16:02.590Z,4.83
2018-06-20T11:18:32.361Z,6.50
2018-06-20T11:21:00.777Z,5.20
2018-06-20T11:23:30.359Z,4.70
2018-06-20T11:25:59.509Z,4.00
2018-06-20T11:28:28.577Z,3.33
2018-06-20T11:30:56.952Z,3.77
2018-06-20T11:33:25.443Z,4.00
2018-06-20T11:35:53.916Z,4.77
2018-06-20T11:38:22.914Z,3.60
2018-06-20T11:40:51.405Z,3.10
2018-06-20T11:43:19.672Z,3.80
2018-06-20T11:45:53.412Z,3.27
2018-06-20T11:48:22.113Z,3.37
2018-06-20T11:50:50.351Z,3.20
2018-06-20T11:53:18.997Z,3.60
2018-06-20T11:55:47.641Z,3.30
2018-06-20T11:58:21.616Z,3.13
2018-06-20T12:00:56.553Z,2.90
2018-06-20T12:03:30.426Z,3.20
2018-06-20T12:06:06.209Z,3.30
2018-06-20T12:08:40.488Z,3.20
2018-06-20T12:11:14.778Z,3.10
2018-06-20T12:13:48.570Z,3.37
2018-06-20T12:16:19.094Z,3.07
2018-06-20T12:18:53.124Z,3.47
2018-06-20T12:21:26.995Z,3.33
2018-06-20T12:24:00.602Z,3.07
2018-06-20T12:26:40.536Z,3.20
2018-06-20T12:29:14.147Z,2.93
2018-06-20T12:31:48.002Z,3.17
2018-06-20T12:34:21.872Z,3.00
2018-06-20T12:36:55.668Z,3.80
2018-06-20T12:39:39.378Z,3.83
2018-06-20T12:42:13.603Z,3.80
2018-06-20T12:44:49.928Z,3.13
2018-06-20T12:47:23.445Z,3.33
2018-06-20T12:50:09.706Z,2.90
2018-06-20T12:52:38.295Z,3.73
2018-06-20T12:55:06.369Z,4.00
2018-06-20T12:57:34.294Z,4.00
2018-06-20T13:00:02.301Z,4.00
2018-06-20T13:02:30.858Z,3.60
2018-06-20T13:04:59.352Z,4.43
2018-06-20T13:07:27.830Z,4.00
2018-06-20T13:09:56.453Z,4.07
2018-06-20T13:12:25.021Z,4.57
2018-06-20T13:14:53.558Z,4.10
2018-06-20T13:17:21.954Z,3.73
2018-06-20T13:19:50.474Z,4.03
2018-06-20T13:22:19.034Z,3.47
2018-06-20T13:24:48.346Z,4.00
2018-06-20T13:27:22.298Z,4.07
2018-06-20T13:29:55.993Z,3.53
2018-06-20T13:32:29.913Z,3.80
2018-06-20T13:35:04.283Z,4.17
2018-06-20T13:37:38.291Z,4.37
2018-06-20T13:40:12.213Z,4.00
2018-06-20T13:42:45.815Z,3.63
2018-06-20T13:45:19.598Z,5.73
2018-06-20T13:47:53.407Z,7.10
2018-06-20T13:50:21.807Z,7.53
2018-06-20T13:52:50.330Z,7.73
2018-06-20T13:55:18.646Z,5.00
2018-06-20T13:57:47.302Z,4.90
2018-06-20T14:00:17.797Z,5.00
2018-06-20T14:02:46.165Z,4.33
2018-06-20T14:05:15.748Z,4.93
2018-06-20T14:07:44.185Z,4.00
2018-06-20T14:10:15.674Z,4.43
2018-06-20T14:12:44.981Z,4.40
2018-06-20T14:15:13.614Z,4.43
2018-06-20T14:17:42.042Z,4.03
2018-06-20T14:20:16.078Z,4.17
2018-06-20T14:22:44.582Z,7.77
2018-06-20T14:25:13.116Z,10.20
2018-06-20T14:27:41.704Z,7.60
2018-06-20T14:30:10.165Z,5.83
2018-06-20T14:32:43.870Z,5.27
2018-06-20T14:35:17.838Z,5.27
2018-06-20T14:37:51.554Z,4.77
2018-06-20T14:40:25.405Z,5.03
2018-06-20T14:43:02.157Z,4.60
2018-06-20T14:45:35.917Z,4.20
2018-06-20T14:48:07.533Z,4.23
2018-06-20T14:50:36.258Z,4.63
2018-06-20T14:53:05.358Z,4.60
2018-06-20T14:55:34.072Z,5.47
2018-06-20T14:58:02.426Z,4.60
2018-06-20T15:00:31.110Z,6.27
2018-06-20T15:02:59.773Z,5.20
2018-06-20T15:05:28.042Z,5.40
2018-06-20T15:07:56.422Z,5.07
2018-06-20T15:10:24.802Z,5.10
2018-06-20T15:12:53.596Z,12.70
2018-06-20T15:15:22.075Z,12.00
2018-06-20T15:17:50.507Z,18.83
2018-06-20T15:20:19.068Z,10.97
2018-06-20T15:22:48.162Z,16.10
2018-06-20T15:25:20.894Z,7.93
2018-06-20T15:27:54.737Z,6.67
2018-06-20T15:30:28.407Z,8.17
2018-06-20T15:33:01.925Z,9.83
2018-06-20T15:35:35.712Z,13.80
2018-06-20T15:38:09.389Z,8.10
2018-06-20T15:40:53.507Z,8.40
2018-06-20T15:43:29.229Z,5.53
2018-06-20T15:46:04.014Z,4.97
2018-06-20T15:48:51.480Z,6.80
2018-06-20T15:51:23.553Z,5.47
2018-06-20T15:53:55.459Z,5.27
2018-06-20T15:56:25.790Z,6.03
2018-06-20T15:58:54.099Z,6.27
2018-06-20T16:01:22.532Z,5.13
2018-06-20T16:03:50.985Z,6.73
2018-06-20T16:06:19.602Z,6.27
2018-06-20T16:08:53.601Z,5.70
2018-06-20T16:11:22.066Z,4.80
2018-06-20T16:13:50.521Z,4.83
2018-06-20T16:16:18.771Z,4.70
2018-06-20T16:18:52.710Z,4.73
2018-06-20T16:21:26.420Z,4.57
2018-06-20T16:24:00.069Z,5.10
2018-06-20T16:26:33.890Z,7.30
2018-06-20T16:29:07.540Z,11.50
2018-06-20T16:31:35.776Z,15.80
2018-06-20T16:34:04.299Z,15.40
2018-06-20T16:36:32.933Z,8.50
2018-06-20T16:39:02.081Z,6.03
2018-06-20T16:41:31.686Z,5.90
2018-06-20T16:43:59.965Z,5.90
2018-06-20T16:46:28.350Z,5.53
2018-06-20T16:48:57.078Z,6.13
2018-06-20T16:51:25.548Z,5.60
2018-06-20T16:53:54.037Z,6.67
2018-06-20T16:56:22.578Z,6.10
2018-06-20T16:58:50.899Z,6.40
2018-06-20T17:01:24.675Z,5.87
2018-06-20T17:03:53.245Z,6.50
2018-06-20T17:06:21.855Z,5.90
2018-06-20T17:08:50.224Z,6.40
2018-06-20T17:11:18.574Z,7.00
2018-06-20T17:13:52.337Z,6.87
2018-06-20T17:16:26.275Z,7.27
2018-06-20T17:19:00.004Z,7.30
2018-06-20T17:21:33.927Z,7.53
2018-06-20T17:24:07.761Z,6.53
2018-06-20T17:26:36.433Z,7.33
2018-06-20T17:29:04.797Z,6.97
2018-06-20T17:31:33.273Z,7.47
2018-06-20T17:34:01.809Z,7.93
2018-06-20T17:36:30.136Z,8.03
2018-06-20T17:38:58.765Z,8.10
2018-06-20T17:41:27.341Z,8.60
2018-06-20T17:43:55.722Z,8.20
2018-06-20T17:46:24.431Z,8.70
2018-06-20T17:48:53.155Z,8.00
2018-06-20T17:51:21.774Z,7.93
2018-06-20T17:53:51.895Z,7.77
2018-06-20T17:56:20.822Z,6.60
2018-06-20T17:58:49.665Z,7.00
2018-06-20T18:01:18.293Z,6.20
2018-06-20T18:03:48.498Z,6.60
2018-06-20T18:06:22.366Z,6.50
2018-06-20T18:08:56.236Z,6.20
2018-06-20T18:11:29.772Z,6.00
2018-06-20T18:14:03.819Z,6.03
2018-06-20T18:16:38.221Z,5.80
2018-06-20T18:19:06.926Z,5.47
2018-06-20T18:21:39.324Z,5.87
2018-06-20T18:24:11.867Z,5.70
2018-06-20T18:26:41.745Z,6.30
2018-06-20T18:29:10.940Z,6.13
2018-06-20T18:31:39.842Z,5.47
2018-06-20T18:34:08.322Z,5.40
2018-06-20T18:36:37.011Z,5.23
2018-06-20T18:39:07.441Z,6.10
2018-06-20T18:41:35.754Z,5.60
2018-06-20T18:44:06.200Z,5.70
2018-06-20T18:46:34.935Z,5.27
2018-06-20T18:49:03.990Z,5.90
2018-06-20T18:51:32.326Z,6.20
2018-06-20T18:54:01.658Z,5.83
2018-06-20T18:56:30.859Z,5.77
2018-06-20T18:59:04.996Z,5.37
2018-06-20T19:01:38.969Z,5.53
2018-06-20T19:04:18.390Z,5.63
2018-06-20T19:06:52.401Z,6.60
2018-06-20T19:09:23.796Z,6.10
2018-06-20T19:11:52.229Z,6.43
2018-06-20T19:14:20.889Z,5.57
2018-06-20T19:16:50.573Z,5.57
2018-06-20T19:19:20.693Z,6.03
2018-06-20T19:21:49.800Z,5.73
2018-06-20T19:24:19.057Z,5.60
2018-06-20T19:26:48.053Z,6.43
2018-06-20T19:29:16.449Z,5.60
2018-06-20T19:31:45.373Z,5.80
2018-06-20T19:34:15.202Z,5.70
2018-06-20T19:36:44.329Z,6.07
2018-06-20T19:39:19.234Z,5.90
2018-06-20T19:41:50.084Z,5.60
2018-06-20T19:44:23.926Z,5.90
2018-06-20T19:46:52.877Z,5.93
2018-06-20T19:49:21.226Z,5.83
2018-06-20T19:51:49.591Z,6.00
2018-06-20T19:54:18.074Z,6.40
2018-06-20T19:56:46.337Z,5.77
2018-06-20T19:59:14.682Z,5.63
2018-06-20T20:01:44.952Z,5.63
2018-06-20T20:04:13.418Z,5.90
2018-06-20T20:06:41.926Z,6.17
2018-06-20T20:09:10.410Z,5.83
2018-06-20T20:11:39.365Z,6.03
2018-06-20T20:14:08.880Z,5.97
2018-06-20T20:16:37.562Z,6.00
2018-06-20T20:19:05.885Z,6.43
2018-06-20T20:21:34.781Z,5.50
2018-06-20T20:24:03.346Z,5.90
2018-06-20T20:26:31.743Z,5.97
2018-06-20T20:29:00.039Z,6.10
2018-06-20T20:31:28.484Z,6.27
2018-06-20T20:33:57.015Z,6.40
2018-06-20T20:36:25.459Z,6.30
2018-06-20T20:38:53.731Z,5.63
2018-06-20T20:41:22.119Z,6.17
2018-06-20T20:43:50.389Z,6.03
2018-06-20T20:46:18.795Z,7.10
2018-06-20T20:48:47.154Z,6.50
2018-06-20T20:51:15.620Z,6.50
2018-06-20T20:53:43.912Z,6.17
2018-06-20T20:56:15.370Z,6.60
2018-06-20T20:58:43.730Z,6.60
2018-06-20T21:01:12.137Z,6.23
2018-06-20T21:03:40.494Z,5.60
2018-06-20T21:06:09.041Z,6.43
2018-06-20T21:08:37.484Z,6.00
2018-06-20T21:11:05.831Z,6.20
2018-06-20T21:13:34.221Z,5.83
2018-06-20T21:16:02.384Z,6.43
2018-06-20T21:18:30.549Z,6.13
2018-06-20T21:20:58.641Z,6.57
2018-06-20T21:23:27.050Z,5.87
2018-06-20T21:25:55.398Z,6.67
2018-06-20T21:28:23.778Z,6.60
2018-06-20T21:30:52.158Z,6.33
2018-06-20T21:33:20.541Z,7.33
2018-06-20T21:35:48.918Z,6.50
2018-06-20T21:38:17.189Z,6.00
2018-06-20T21:40:45.553Z,6.83
2018-06-20T21:43:13.873Z,6.20
2018-06-20T21:45:42.113Z,6.13
2018-06-20T21:48:10.502Z,6.50
2018-06-20T21:50:38.862Z,6.40
2018-06-20T21:53:07.244Z,6.90
2018-06-20T21:55:35.633Z,6.77
2018-06-20T21:58:04.113Z,6.33
2018-06-20T22:00:32.698Z,6.70
2018-06-20T22:03:01.082Z,6.93
2018-06-20T22:05:29.591Z,6.47
2018-06-20T22:07:57.832Z,6.17
2018-06-20T22:10:26.352Z,6.57
2018-06-20T22:12:54.807Z,6.70
2018-06-20T22:15:23.170Z,6.40
2018-06-20T22:17:51.676Z,6.27
2018-06-20T22:20:20.038Z,6.17
2018-06-20T22:22:48.530Z,6.43
2018-06-20T22:25:16.894Z,6.63
2018-06-20T22:27:45.419Z,7.03
2018-06-20T22:30:13.645Z,7.13
2018-06-20T22:32:42.052Z,6.40
2018-06-20T22:35:10.754Z,6.63
2018-06-20T22:37:39.209Z,6.73
2018-06-20T22:40:07.823Z,6.90
2018-06-20T22:42:36.377Z,6.50
2018-06-20T22:45:04.966Z,6.20
2018-06-20T22:47:33.238Z,7.10
2018-06-20T22:50:01.571Z,7.00
2018-06-20T22:52:29.986Z,6.57
2018-06-20T22:54:58.277Z,6.93
2018-06-20T22:57:26.857Z,6.97
2018-06-20T22:59:56.067Z,6.53
2018-06-20T23:02:24.588Z,7.03
2018-06-20T23:04:53.132Z,6.87
2018-06-20T23:07:21.710Z,7.20
2018-06-20T23:09:50.152Z,7.50
2018-06-20T23:12:18.578Z,6.93
2018-06-20T23:14:47.660Z,6.90
2018-06-20T23:17:16.193Z,6.97
2018-06-20T23:19:44.529Z,6.60
2018-06-20T23:22:13.007Z,6.60
2018-06-20T23:24:41.642Z,6.90
2018-06-20T23:27:10.107Z,6.77
2018-06-20T23:29:38.564Z,5.97
2018-06-20T23:32:06.977Z,6.70
2018-06-20T23:34:36.122Z,6.37
2018-06-20T23:37:04.501Z,6.63
2018-06-20T23:39:33.810Z,6.87
2018-06-20T23:42:02.385Z,6.47
2018-06-20T23:44:30.786Z,6.33
2018-06-20T23:46:59.382Z,6.37
2018-06-20T23:49:27.932Z,6.50
2018-06-20T23:51:56.314Z,6.23
2018-06-20T23:54:25.894Z,6.40
2018-06-20T23:56:54.434Z,6.70
2018-06-20T23:59:22.694Z,5.90
